Time;durP1;ratioP1;P1;durP2;ratioP2;P2;SDS_P1;SDS_P2;PMS_P1;PMS_P2;Temp;Humidity;BMP_temperature;BMP_pressure;BME280_temperature;BME280_humidity;BME280_pressure;Samples;Min_cycle;Max_cycle;Signal;HPM_P1;HPM_P2
2023/07/14 00:01:25;;;;;;;13.00;6.20;;;;;;;15.75;100.00;99134.96;273527;1254;22522;-79
2023/07/14 00:07:28;;;;;;;9.40;6.70;;;;;;;15.71;100.00;99132.09;273653;1257;23457;-80
2023/07/14 00:13:29;;;;;;;8.50;6.30;;;;;;;15.71;100.00;99135.70;273045;1267;22229;-79
2023/07/14 00:19:31;;;;;;;8.40;6.20;;;;;;;15.71;100.00;99142.50;273628;1266;22416;-80
2023/07/14 00:25:34;;;;;;;10.10;6.70;;;;;;;15.69;100.00;99143.36;273626;1266;22408;-81
2023/07/14 00:31:37;;;;;;;10.70;6.10;;;;;;;15.70;100.00;99137.21;273619;1264;22304;-80
2023/07/14 00:37:38;;;;;;;8.50;6.20;;;;;;;15.69;100.00;99144.94;273675;1266;22596;-80
2023/07/14 00:43:42;;;;;;;9.50;6.20;;;;;;;15.64;100.00;99151.75;271667;1267;22444;-80
2023/07/14 00:50:04;;;;;;;11.20;6.30;;;;;;;15.57;100.00;99151.17;274049;1270;23210;-79
2023/07/14 00:56:15;;;;;;;14.40;6.40;;;;;;;15.47;100.00;99151.01;273620;1268;22632;-78
2023/07/14 01:02:58;;;;;;;8.40;6.60;;;;;;;15.40;100.00;99148.98;273651;1267;22536;-81
2023/07/14 01:09:23;;;;;;;7.20;6.40;;;;;;;15.36;100.00;99147.41;273482;1267;22981;-80
2023/07/14 01:15:25;;;;;;;6.40;5.80;;;;;;;15.37;100.00;99154.04;272615;1267;22372;-79
2023/07/14 01:21:48;;;;;;;12.30;6.60;;;;;;;15.35;100.00;99154.35;273386;1267;22405;-80
2023/07/14 01:28:30;;;;;;;9.60;7.30;;;;;;;15.22;100.00;99153.16;273550;1255;22420;-80
2023/07/14 01:34:55;;;;;;;12.20;7.00;;;;;;;15.12;100.00;99155.25;273627;1267;22301;-80
2023/07/14 01:40:57;;;;;;;11.70;7.60;;;;;;;15.17;100.00;99170.03;273593;1267;22197;-80
2023/07/14 01:47:00;;;;;;;13.90;7.70;;;;;;;15.20;100.00;99180.27;273076;1267;22405;-80
2023/07/14 01:53:05;;;;;;;11.50;7.30;;;;;;;15.04;100.00;99183.09;271886;1267;22544;-80
2023/07/14 01:59:29;;;;;;;7.80;6.80;;;;;;;14.91;100.00;99187.09;271927;1262;22555;-81
2023/07/14 02:05:51;;;;;;;12.50;8.10;;;;;;;14.98;100.00;99199.51;271000;1267;22184;-81
2023/07/14 02:12:17;;;;;;;8.20;7.10;;;;;;;15.01;100.00;99207.61;272317;1267;23692;-80
2023/07/14 02:19:00;;;;;;;10.30;7.20;;;;;;;15.02;100.00;99218.07;271891;1270;22536;-81
2023/07/14 02:25:03;;;;;;;9.90;7.20;;;;;;;15.03;100.00;99230.11;272097;1267;23495;-80
2023/07/14 02:31:29;;;;;;;8.40;6.90;;;;;;;14.92;100.00;99235.83;270585;1262;22232;-79
2023/07/14 02:37:41;;;;;;;8.90;6.60;;;;;;;14.78;100.00;99242.23;269924;1264;22455;-80
2023/07/14 02:44:07;;;;;;;8.20;6.20;;;;;;;14.68;100.00;99245.88;272615;1269;22416;-80
2023/07/14 02:50:09;;;;;;;9.70;7.40;;;;;;;14.73;100.00;99258.46;270812;1264;22535;-80
2023/07/14 02:56:11;;;;;;;10.60;6.60;;;;;;;14.74;100.00;99259.80;271461;1256;22547;-80
2023/07/14 03:02:14;;;;;;;9.80;6.50;;;;;;;14.71;100.00;99263.34;271534;1267;23678;-80
2023/07/14 03:08:16;;;;;;;8.10;6.60;;;;;;;14.64;100.00;99276.72;271390;1267;22286;-80
2023/07/14 03:14:25;;;;;;;13.90;6.90;;;;;;;14.61;100.00;99281.54;271762;1260;1828622;-81
2023/07/14 03:20:27;;;;;;;9.40;6.60;;;;;;;14.57;100.00;99283.44;271746;1269;22527;-81
2023/07/14 03:26:28;;;;;;;11.40;7.00;;;;;;;14.64;100.00;99285.86;271915;1267;22208;-81
2023/07/14 03:32:30;;;;;;;11.30;7.10;;;;;;;14.68;100.00;99294.20;273474;1266;24184;-80
2023/07/14 03:38:42;;;;;;;8.50;7.30;;;;;;;14.73;100.00;99302.55;271238;1267;22532;-80
2023/07/14 03:44:44;;;;;;;10.20;7.70;;;;;;;14.66;100.00;99295.45;273534;1266;22406;-81
2023/07/14 03:50:45;;;;;;;10.30;8.90;;;;;;;14.62;100.00;99287.59;270812;1256;23192;-80
2023/07/14 03:56:47;;;;;;;10.80;7.90;;;;;;;14.69;100.00;99286.50;270558;1266;23284;-80
2023/07/14 04:02:49;;;;;;;11.80;8.30;;;;;;;14.77;100.00;99291.84;270483;1267;22243;-80
2023/07/14 04:09:31;;;;;;;12.80;8.90;;;;;;;14.87;100.00;99300.88;270124;1267;24314;-80
2023/07/14 04:15:36;;;;;;;12.40;9.60;;;;;;;15.01;100.00;99301.48;270494;1266;22517;-79
2023/07/14 04:21:37;;;;;;;11.10;9.70;;;;;;;15.14;100.00;99307.29;272194;1267;22373;-79
2023/07/14 04:27:39;;;;;;;14.60;9.80;;;;;;;15.23;100.00;99307.35;273322;1267;23379;-80
2023/07/14 04:34:24;;;;;;;12.00;9.30;;;;;;;15.34;100.00;99305.91;273569;1267;23009;-80
2023/07/14 04:40:47;;;;;;;12.60;9.10;;;;;;;15.39;100.00;99314.41;273600;1267;22207;-80
2023/07/14 04:46:49;;;;;;;11.90;8.10;;;;;;;15.41;100.00;99321.20;273555;1266;22459;-80
2023/07/14 04:52:51;;;;;;;15.70;9.50;;;;;;;15.59;100.00;99321.76;273498;1266;22244;-80
2023/07/14 04:58:53;;;;;;;14.70;10.20;;;;;;;15.79;100.00;99318.52;273377;1266;23275;-80
2023/07/14 05:05:11;;;;;;;26.50;10.60;;;;;;;15.96;100.00;99325.30;273322;1257;22296;-79
2023/07/14 05:11:38;;;;;;;17.50;11.60;;;;;;;16.10;100.00;99328.38;273395;1266;22373;-80
2023/07/14 05:17:41;;;;;;;18.70;10.20;;;;;;;16.26;100.00;99328.27;273315;1266;22261;-80
2023/07/14 05:23:45;;;;;;;13.40;9.70;;;;;;;16.43;100.00;99325.19;273482;1267;22459;-79
2023/07/14 05:29:49;;;;;;;12.00;9.70;;;;;;;16.56;100.00;99328.88;273286;1266;22776;-80
2023/07/14 05:35:51;;;;;;;13.40;10.00;;;;;;;16.66;100.00;99326.13;273326;1267;23734;-80
2023/07/14 05:41:52;;;;;;;11.30;9.60;;;;;;;16.72;100.00;99332.39;273365;1267;22449;-80
2023/07/14 05:47:54;;;;;;;12.70;9.20;;;;;;;16.78;100.00;99346.33;273572;1254;22957;-79
2023/07/14 05:53:56;;;;;;;13.50;7.80;;;;;;;16.85;100.00;99346.73;273539;1267;22430;-80
2023/07/14 06:00:19;;;;;;;11.10;6.70;;;;;;;16.97;100.00;99342.05;273615;1266;22392;-80
2023/07/14 06:06:41;;;;;;;7.90;6.80;;;;;;;17.06;100.00;99348.06;273589;1267;22538;-80
2023/07/14 06:12:43;;;;;;;9.90;6.90;;;;;;;17.26;100.00;99349.36;273414;1267;22474;-80
2023/07/14 06:18:44;;;;;;;12.80;7.60;;;;;;;17.48;100.00;99346.48;273500;1256;23174;-80
2023/07/14 06:25:07;;;;;;;12.80;7.30;;;;;;;17.71;100.00;99346.04;273214;1267;22481;-80
2023/07/14 06:31:18;;;;;;;8.60;6.80;;;;;;;18.00;100.00;99347.10;273422;1258;22354;-81
2023/07/14 06:37:20;;;;;;;12.20;8.20;;;;;;;18.28;100.00;99347.42;273652;1266;22390;-80
2023/07/14 06:43:42;;;;;;;11.70;6.70;;;;;;;18.52;100.00;99343.85;273969;1269;22270;-79
2023/07/14 06:49:44;;;;;;;9.60;5.30;;;;;;;18.63;100.00;99336.63;273504;1265;23665;-79
2023/07/14 06:55:46;;;;;;;8.50;6.40;;;;;;;18.82;100.00;99334.02;273428;1257;22489;-78
2023/07/14 07:02:11;;;;;;;7.20;5.50;;;;;;;19.23;100.00;99332.77;273481;1256;22276;-78
2023/07/14 07:08:14;;;;;;;8.80;5.00;;;;;;;19.68;100.00;99334.42;273516;1267;22504;-79
2023/07/14 07:14:19;;;;;;;9.50;4.90;;;;;;;20.16;100.00;99334.93;273272;1267;22504;-79
2023/07/14 07:20:21;;;;;;;5.90;3.50;;;;;;;20.70;100.00;99340.78;272303;1269;22660;-79
2023/07/14 07:26:22;;;;;;;6.70;3.60;;;;;;;21.23;100.00;99339.12;273220;1267;22633;-79
2023/07/14 07:32:24;;;;;;;7.50;3.70;;;;;;;21.71;100.00;99341.31;273090;1269;22426;-78
2023/07/14 07:38:26;;;;;;;5.40;3.00;;;;;;;22.03;100.00;99343.83;271968;1267;23618;-78
2023/07/14 07:44:27;;;;;;;4.70;2.90;;;;;;;22.30;100.00;99344.68;272567;1256;23110;-80
2023/07/14 07:50:29;;;;;;;3.50;2.70;;;;;;;22.57;100.00;99342.82;273030;1269;22427;-79
2023/07/14 07:56:33;;;;;;;6.30;2.90;;;;;;;22.74;100.00;99346.59;273661;1268;22254;-79
2023/07/14 08:02:55;;;;;;;7.20;2.70;;;;;;;22.93;100.00;99347.39;273643;1266;22453;-79
2023/07/14 08:08:58;;;;;;;4.30;2.90;;;;;;;23.02;100.00;99348.70;273597;1269;22452;-79
2023/07/14 08:14:59;;;;;;;7.20;2.90;;;;;;;23.15;99.88;99346.88;272429;1267;22524;-82
2023/07/14 08:21:24;;;;;;;5.60;3.40;;;;;;;23.19;98.34;99346.60;271891;1255;22395;-79
2023/07/14 08:27:26;;;;;;;4.70;2.80;;;;;;;23.37;97.62;99352.69;271314;1267;22549;-78
2023/07/14 08:33:47;;;;;;;3.80;2.30;;;;;;;23.55;96.51;99350.38;271567;1267;22863;-78
2023/07/14 08:39:49;;;;;;;3.90;2.40;;;;;;;23.61;94.56;99346.02;272794;1269;22628;-82
2023/07/14 08:46:21;;;;;;;5.00;2.60;;;;;;;23.68;93.37;99341.67;273656;1266;22174;-78
2023/07/14 08:52:45;;;;;;;5.40;2.40;;;;;;;23.76;91.73;99341.06;273418;1267;22329;-82
2023/07/14 08:59:11;;;;;;;7.00;2.80;;;;;;;23.77;89.14;99338.48;273587;1269;23157;-79
2023/07/14 09:05:28;;;;;;;5.60;2.40;;;;;;;23.80;88.30;99341.40;273299;1269;23142;-78
2023/07/14 09:12:35;;;;;;;;;;;;;;;;;;;;;
2023/07/14 09:19:07;;;;;;;4.10;2.30;;;;;;;23.95;85.58;99333.89;272325;1268;25447;-79
2023/07/14 09:25:30;;;;;;;4.00;2.00;;;;;;;24.01;84.06;99331.02;272378;1264;22405;-79
2023/07/14 09:31:53;;;;;;;4.30;2.30;;;;;;;24.16;82.24;99327.12;273156;1269;22407;-81
2023/07/14 09:38:05;;;;;;;2.30;1.90;;;;;;;24.44;81.06;99328.40;272441;1269;22445;-80
2023/07/14 09:44:11;;;;;;;5.50;1.90;;;;;;;24.81;79.24;99328.43;271662;1269;23862;-83
2023/07/14 09:50:18;;;;;;;;;;;;;;;25.02;76.85;99332.77;272469;1260;23805;-80
2023/07/14 09:56:24;;;;;;;6.10;2.20;;;;;;;25.45;76.93;99330.19;272398;1269;24201;-83
2023/07/14 10:02:32;;;;;;;3.20;1.90;;;;;;;26.03;74.77;99323.05;273278;1266;23020;-80
2023/07/14 10:08:49;;;;;;;3.40;2.00;;;;;;;26.48;73.07;99325.42;273527;1270;23181;-79
2023/07/14 10:14:53;;;;;;;4.50;2.20;;;;;;;26.75;71.67;99314.85;273326;1269;22375;-79
2023/07/14 10:21:11;;;;;;;2.20;1.50;;;;;;;26.85;69.61;99307.16;273369;1254;22184;-79
2023/07/14 10:27:25;;;;;;;5.40;2.20;;;;;;;26.63;68.53;99305.31;273305;1270;22302;-78
2023/07/14 10:34:27;;;;;;;2.80;2.10;;;;;;;26.86;68.48;99302.02;273464;1269;22609;-79
2023/07/14 10:40:50;;;;;;;3.80;1.80;;;;;;;27.19;66.71;99304.29;273102;1261;22569;-78
2023/07/14 10:47:55;;;;;;;3.50;1.80;;;;;;;27.30;63.26;99294.00;273515;1269;23548;-79
2023/07/14 10:54:53;;;;;;;3.60;1.40;;;;;;;27.46;61.65;99290.23;273737;1260;23041;-79
2023/07/14 11:01:50;;;;;;;2.30;1.60;;;;;;;27.65;60.90;99287.08;273388;1269;22429;-79
2023/07/14 11:09:14;;;;;;;4.20;1.80;;;;;;;27.91;60.14;99280.80;273233;1269;22415;-78
2023/07/14 11:16:06;;;;;;;3.40;2.00;;;;;;;28.19;59.16;99274.90;273963;1271;22165;-79
2023/07/14 11:22:33;;;;;;;3.60;1.90;;;;;;;28.27;57.32;99273.95;273877;1269;22203;-79
2023/07/14 11:29:42;;;;;;;2.90;1.50;;;;;;;28.42;55.89;99269.98;273580;1260;23507;-80
2023/07/14 11:36:08;;;;;;;2.50;1.30;;;;;;;28.68;54.25;99262.02;273594;1269;23030;-79
2023/07/14 11:42:51;;;;;;;4.00;1.80;;;;;;;28.80;52.57;99254.75;273790;1270;22424;-78
2023/07/14 11:48:52;;;;;;;3.20;1.30;;;;;;;28.89;51.65;99248.15;273757;1270;22162;-79
2023/07/14 11:55:20;;;;;;;2.00;1.30;;;;;;;29.21;51.25;99240.47;273272;1263;22364;-78
2023/07/14 12:01:29;;;;;;;3.50;1.70;;;;;;;29.27;50.42;99234.39;273617;1270;23008;-78
2023/07/14 12:08:08;;;;;;;3.60;1.60;;;;;;;29.24;50.47;99229.55;272233;1269;22520;-79
2023/07/14 12:14:35;;;;;;;4.40;1.90;;;;;;;28.84;49.19;99224.27;273638;1269;23245;-78
2023/07/14 12:21:18;;;;;;;4.30;1.70;;;;;;;28.36;47.65;99221.38;273488;1269;22466;-77
2023/07/14 12:27:48;;;;;;;3.40;1.40;;;;;;;27.68;45.51;99212.87;273387;1264;22361;-77
2023/07/14 12:33:54;;;;;;;2.20;1.30;;;;;;;27.49;46.96;99205.70;273250;1256;22492;-78
2023/07/14 12:40:21;;;;;;;2.80;1.50;;;;;;;27.38;47.57;99204.43;273318;1269;22337;-77
2023/07/14 12:46:35;;;;;;;1.70;1.10;;;;;;;27.32;47.04;99205.02;273532;1259;23020;-78
2023/07/14 12:52:50;;;;;;;;;;;;;;;27.26;47.07;99195.50;273530;1257;22432;-79
2023/07/14 12:58:57;;;;;;;1.60;1.00;;;;;;;27.01;44.78;99191.63;273710;1269;22454;-78
2023/07/14 13:05:00;;;;;;;2.10;1.00;;;;;;;26.80;43.66;99187.33;272962;1254;23198;-81
2023/07/14 13:11:22;;;;;;;4.00;1.40;;;;;;;26.67;43.76;99185.54;272446;1257;22394;-78
2023/07/14 13:17:25;;;;;;;2.60;1.00;;;;;;;26.51;43.06;99179.58;271912;1269;22417;-81
2023/07/14 13:23:33;;;;;;;2.90;1.20;;;;;;;26.47;44.04;99173.96;272438;1269;22220;-78
2023/07/14 13:30:15;;;;;;;2.20;1.10;;;;;;;26.37;43.70;99167.88;273445;1269;24710;-78
2023/07/14 13:36:38;;;;;;;3.10;1.30;;;;;;;26.25;43.53;99161.45;273504;1269;22364;-78
2023/07/14 13:43:01;;;;;;;2.10;1.10;;;;;;;26.17;43.23;99153.21;273532;1269;22188;-78
2023/07/14 13:49:06;;;;;;;2.70;1.40;;;;;;;26.08;43.63;99152.95;273432;1267;23833;-78
2023/07/14 13:55:26;;;;;;;5.00;1.60;;;;;;;26.03;43.16;99146.81;273537;1264;22220;-78
2023/07/14 14:01:28;;;;;;;2.50;1.50;;;;;;;26.04;42.82;99141.13;273479;1269;23338;-78
2023/07/14 14:07:37;;;;;;;4.50;1.30;;;;;;;26.07;42.86;99140.84;273743;1266;22233;-78
2023/07/14 14:13:39;;;;;;;2.50;1.20;;;;;;;26.07;42.59;99136.03;273502;1263;22288;-77
2023/07/14 14:19:46;;;;;;;3.40;1.50;;;;;;;26.07;42.82;99133.35;273859;1269;22188;-77
2023/07/14 14:25:49;;;;;;;2.00;1.20;;;;;;;26.10;43.98;99130.11;273568;1268;22175;-78
2023/07/14 14:32:23;;;;;;;3.50;1.30;;;;;;;26.14;44.06;99130.39;273453;1268;23516;-78
2023/07/14 14:38:46;;;;;;;4.50;1.80;;;;;;;26.22;44.19;99122.64;271808;1269;22385;-81
2023/07/14 14:45:04;;;;;;;2.40;1.50;;;;;;;26.09;45.18;99117.88;272485;1269;22359;-78
2023/07/14 14:51:11;;;;;;;2.80;1.60;;;;;;;25.93;44.32;99116.48;273202;1267;22246;-77
2023/07/14 14:57:53;;;;;;;1.80;1.40;;;;;;;25.91;43.94;99113.96;273339;1256;22145;-77
2023/07/14 15:03:54;;;;;;;2.80;1.30;;;;;;;25.81;44.79;99111.15;272659;1256;22236;-77
2023/07/14 15:09:56;;;;;;;3.70;1.70;;;;;;;25.70;45.58;99106.43;273485;1268;22487;-77
2023/07/14 15:16:01;;;;;;;2.60;1.60;;;;;;;25.61;45.47;99100.46;272818;1266;114507;-77
2023/07/14 15:22:21;;;;;;;2.70;1.50;;;;;;;25.61;44.55;99096.44;273421;1260;22379;-77
2023/07/14 15:28:25;;;;;;;3.10;1.40;;;;;;;25.64;45.21;99101.09;273539;1268;22399;-77
2023/07/14 15:34:27;;;;;;;2.00;1.50;;;;;;;25.58;46.14;99103.46;273793;1270;23567;-77
2023/07/14 15:40:47;;;;;;;3.40;2.00;;;;;;;25.48;46.75;99106.58;273375;1268;22595;-77
2023/07/14 15:47:33;;;;;;;4.00;1.30;;;;;;;25.41;46.88;99105.48;273385;1269;23612;-78
2023/07/14 15:54:35;;;;;;;3.60;1.80;;;;;;;25.31;46.18;99104.34;273252;1260;22208;-77
2023/07/14 16:00:56;;;;;;;4.50;1.90;;;;;;;25.21;46.10;99099.75;273293;1262;22805;-78
2023/07/14 16:06:58;;;;;;;2.60;1.50;;;;;;;25.18;45.84;99099.17;273520;1269;23251;-77
2023/07/14 16:13:19;;;;;;;5.60;1.70;;;;;;;25.18;45.42;99101.75;273978;1264;23250;-76
2023/07/14 16:19:49;;;;;;;2.40;1.50;;;;;;;25.16;45.20;99100.63;273801;1259;22210;-77
2023/07/14 16:25:51;;;;;;;3.70;1.80;;;;;;;25.08;45.56;99102.92;273268;1269;23000;-77
2023/07/14 16:31:53;;;;;;;5.70;1.40;;;;;;;24.99;45.89;99099.27;269764;1253;23632;-78
2023/07/14 16:38:01;;;;;;;4.00;1.40;;;;;;;24.99;46.20;99094.73;271552;1269;22524;-78
2023/07/14 16:44:26;;;;;;;5.80;1.80;;;;;;;25.00;46.36;99089.59;273323;1264;22210;-78
2023/07/14 16:50:28;;;;;;;3.20;1.70;;;;;;;24.95;46.61;99084.50;270809;1269;22565;-77
2023/07/14 16:56:31;;;;;;;5.50;1.90;;;;;;;24.87;46.22;99079.16;272218;1268;22362;-77
2023/07/14 17:02:43;;;;;;;3.60;1.50;;;;;;;24.84;46.15;99078.75;265706;1258;10001379;-77
2023/07/14 17:08:57;;;;;;;3.70;1.90;;;;;;;24.74;46.40;99081.51;273341;1269;22219;-77
2023/07/14 17:15:01;;;;;;;4.20;1.70;;;;;;;24.62;46.88;99078.84;272154;1265;23273;-77
2023/07/14 17:21:03;;;;;;;3.30;1.50;;;;;;;24.47;47.37;99084.59;273048;1258;22197;-77
2023/07/14 17:27:04;;;;;;;2.80;1.50;;;;;;;24.37;47.74;99083.84;273453;1266;22692;-77
2023/07/14 17:33:27;;;;;;;4.40;1.50;;;;;;;24.28;47.77;99080.64;273514;1269;22953;-78
2023/07/14 17:39:30;;;;;;;2.10;1.60;;;;;;;24.18;48.47;99076.58;273439;1259;23578;-77
2023/07/14 17:45:34;;;;;;;4.30;1.70;;;;;;;24.08;49.69;99079.57;273355;1260;22472;-77
2023/07/14 17:51:44;;;;;;;2.60;1.50;;;;;;;23.97;50.06;99079.64;273734;1269;22384;-79
2023/07/14 17:58:13;;;;;;;3.80;1.60;;;;;;;23.81;50.72;99080.27;273418;1268;22418;-78
2023/07/14 18:04:18;;;;;;;4.30;2.10;;;;;;;23.67;51.78;99083.33;273315;1258;23157;-77
2023/07/14 18:10:41;;;;;;;5.50;2.40;;;;;;;23.57;53.50;99085.95;272472;1269;22436;-78
2023/07/14 18:16:43;;;;;;;4.70;2.60;;;;;;;23.39;54.33;99087.87;273533;1261;22343;-77
2023/07/14 18:22:45;;;;;;;6.20;3.00;;;;;;;23.27;53.32;99082.84;273819;1269;22362;-77
2023/07/14 18:28:47;;;;;;;5.30;2.60;;;;;;;23.25;53.05;99086.16;273420;1268;23730;-80
2023/07/14 18:35:29;;;;;;;4.50;2.10;;;;;;;23.22;53.05;99090.75;273439;1268;22577;-76
2023/07/14 18:41:30;;;;;;;7.10;2.60;;;;;;;23.12;53.57;99098.77;273301;1267;22685;-77
2023/07/14 18:47:41;;;;;;;3.40;2.50;;;;;;;23.01;53.84;99103.60;273484;1257;22386;-76
2023/07/14 18:53:51;;;;;;;3.50;2.40;;;;;;;22.90;54.29;99101.29;273516;1269;22431;-77
2023/07/14 18:59:53;;;;;;;5.20;2.50;;;;;;;22.76;54.59;99101.64;273243;1260;22350;-77
2023/07/14 19:05:56;;;;;;;5.10;3.30;;;;;;;22.64;54.95;99106.79;272878;1269;22547;-76
2023/07/14 19:11:58;;;;;;;5.80;2.80;;;;;;;22.52;55.18;99117.01;272015;1269;22532;-77
2023/07/14 19:18:02;;;;;;;10.10;3.00;;;;;;;22.44;55.50;99117.91;272384;1269;22524;-76
2023/07/14 19:24:39;;;;;;;5.60;3.00;;;;;;;22.32;55.94;99116.40;272361;1268;24025;-77
2023/07/14 19:30:41;;;;;;;11.50;3.70;;;;;;;22.13;56.37;99109.36;271382;1268;22506;-77
2023/07/14 19:36:44;;;;;;;6.70;3.00;;;;;;;21.95;56.79;99107.57;273202;1268;22416;-77
2023/07/14 19:43:10;;;;;;;6.50;3.40;;;;;;;21.82;57.37;99105.84;272424;1269;22230;-78
2023/07/14 19:49:32;;;;;;;4.50;3.80;;;;;;;21.69;57.80;99104.31;272267;1269;22610;-77
2023/07/14 19:55:36;;;;;;;6.60;4.40;;;;;;;21.59;58.42;99105.67;272961;1269;22794;-77
2023/07/14 20:01:41;;;;;;;6.70;3.80;;;;;;;21.45;59.01;99103.25;272393;1256;23003;-76
2023/07/14 20:07:43;;;;;;;6.60;3.60;;;;;;;21.32;59.56;99109.46;272655;1269;23623;-76
2023/07/14 20:13:45;;;;;;;6.70;3.90;;;;;;;21.18;60.04;99108.28;272176;1269;23213;-77
2023/07/14 20:19:46;;;;;;;6.70;3.80;;;;;;;21.06;60.66;99104.83;272584;1269;23234;-78
2023/07/14 20:25:50;;;;;;;8.60;4.20;;;;;;;20.93;61.11;99101.13;272345;1259;22444;-76
2023/07/14 20:31:52;;;;;;;8.90;4.50;;;;;;;20.81;61.76;99098.21;273671;1266;23190;-77
2023/07/14 20:38:09;;;;;;;6.90;4.30;;;;;;;20.67;63.27;99089.33;273353;1259;22183;-77
2023/07/14 20:44:12;;;;;;;6.30;4.00;;;;;;;20.40;65.61;99088.80;271368;1269;22524;-77
2023/07/14 20:50:15;;;;;;;12.10;5.30;;;;;;;20.08;68.13;99088.50;268737;1269;22705;-77
2023/07/14 20:56:19;;;;;;;11.70;5.80;;;;;;;19.77;68.57;99089.59;269798;1256;25381;-80
2023/07/14 21:02:43;;;;;;;13.00;6.10;;;;;;;19.58;70.34;99089.50;268807;1269;22531;-81
2023/07/14 21:08:45;;;;;;;9.90;6.10;;;;;;;19.39;71.81;99087.48;269128;1268;25220;-77
2023/07/14 21:14:47;;;;;;;9.50;5.30;;;;;;;19.20;73.37;99088.69;272055;1268;22225;-80
2023/07/14 21:20:54;;;;;;;7.90;5.60;;;;;;;19.04;74.38;99091.38;273641;1269;22207;-77
2023/07/14 21:26:56;;;;;;;8.40;5.40;;;;;;;18.93;75.60;99089.82;273445;1269;22491;-77
2023/07/14 21:33:38;;;;;;;9.00;5.50;;;;;;;18.86;76.62;99090.98;273535;1269;22463;-77
2023/07/14 21:39:40;;;;;;;12.50;5.60;;;;;;;18.81;77.40;99092.05;270290;1258;25291;-77
2023/07/14 21:45:42;;;;;;;12.30;5.60;;;;;;;18.67;77.25;99092.39;270894;1269;22638;-76
2023/07/14 21:51:45;;;;;;;9.80;6.20;;;;;;;18.44;77.29;99089.92;269875;1269;22522;-76
2023/07/14 21:57:54;;;;;;;9.70;5.70;;;;;;;18.24;78.15;99092.80;269471;1258;22189;-77
2023/07/14 22:04:14;;;;;;;7.20;5.70;;;;;;;18.05;79.23;99091.80;273483;1266;22277;-77
2023/07/14 22:10:36;;;;;;;7.80;6.00;;;;;;;17.92;80.27;99092.64;273506;1269;22164;-77
2023/07/14 22:16:54;;;;;;;9.60;6.50;;;;;;;17.85;80.39;99089.05;272079;1269;22463;-77
2023/07/14 22:22:56;;;;;;;8.60;6.70;;;;;;;17.69;80.75;99086.22;273618;1268;22426;-77
2023/07/14 22:28:57;;;;;;;8.70;6.60;;;;;;;17.65;81.99;99088.12;273613;1269;22213;-78
2023/07/14 22:35:21;;;;;;;9.10;6.10;;;;;;;17.58;82.24;99092.41;273752;1269;22454;-77
2023/07/14 22:41:27;;;;;;;10.00;7.20;;;;;;;17.44;83.21;99091.90;273663;1256;22180;-80
2023/07/14 22:47:28;;;;;;;12.70;5.70;;;;;;;17.33;83.58;99087.30;273469;1269;22341;-77
2023/07/14 22:53:43;;;;;;;;;;;;;;;;;;;;;
2023/07/14 22:59:52;;;;;;;11.70;6.70;;;;;;;17.13;84.94;99081.89;273712;1269;23174;-76
2023/07/14 23:05:58;;;;;;;12.70;6.80;;;;;;;17.01;85.81;99080.80;273522;1255;22431;-76
2023/07/14 23:12:00;;;;;;;14.00;7.10;;;;;;;16.93;86.61;99084.77;274009;1269;22284;-75
2023/07/14 23:18:01;;;;;;;9.70;6.60;;;;;;;16.85;87.28;99090.33;273683;1269;22456;-76
2023/07/14 23:24:06;;;;;;;12.40;8.30;;;;;;;16.76;87.75;99087.52;273629;1257;23075;-76
2023/07/14 23:30:10;;;;;;;12.60;7.00;;;;;;;16.68;88.13;99087.52;273656;1269;22416;-76
2023/07/14 23:36:50;;;;;;;11.70;8.10;;;;;;;16.55;88.78;99091.55;273575;1264;22209;-76
2023/07/14 23:42:51;;;;;;;9.70;8.00;;;;;;;16.47;89.47;99091.23;273568;1269;22461;-76
2023/07/14 23:49:13;;;;;;;11.50;8.90;;;;;;;16.39;89.71;99087.20;273860;1269;22327;-76
2023/07/14 23:55:36;;;;;;;13.70;8.20;;;;;;;16.32;90.35;99086.09;273584;1268;22456;-76
